sensor_id;sensor_type;location;lat;lon;timestamp;temperature;humidity
15184;DHT22;7693;49.266;7.104;2022-11-10T05:41:09;9.50;99.90
15184;DHT22;7693;49.266;7.104;2022-11-10T05:43:34;9.50;99.90
15184;DHT22;7693;49.266;7.104;2022-11-10T05:46:00;9.50;99.90
15184;DHT22;7693;49.266;7.104;2022-11-10T05:48:26;9.50;99.90
15184;DHT22;7693;49.266;7.104;2022-11-10T05:50:52;9.50;99.90
15184;DHT22;7693;49.266;7.104;2022-11-10T05:53:17;9.50;99.90
15184;DHT22;7693;49.266;7.104;2022-11-10T05:55:43;9.50;99.90
15184;DHT22;7693;49.266;7.104;2022-11-10T05:58:08;9.50;99.90
15184;DHT22;7693;49.266;7.104;2022-11-10T06:00:34;9.50;99.90
15184;DHT22;7693;49.266;7.104;2022-11-10T06:03:02;9.50;99.90
15184;DHT22;7693;49.266;7.104;2022-11-10T06:05:30;9.50;99.90
15184;DHT22;7693;49.266;7.104;2022-11-10T06:07:57;9.50;99.90
15184;DHT22;7693;49.266;7.104;2022-11-10T06:10:23;9.50;99.90
15184;DHT22;7693;49.266;7.104;2022-11-10T06:12:49;9.60;99.90
15184;DHT22;7693;49.266;7.104;2022-11-10T06:15:15;9.50;99.90
15184;DHT22;7693;49.266;7.104;2022-11-10T06:17:41;9.60;99.90
15184;DHT22;7693;49.266;7.104;2022-11-10T06:20:08;9.60;99.90
15184;DHT22;7693;49.266;7.104;2022-11-10T06:22:34;9.60;99.90
15184;DHT22;7693;49.266;7.104;2022-11-10T06:24:59;9.60;99.90
15184;DHT22;7693;49.266;7.104;2022-11-10T06:27:25;9.60;99.90
15184;DHT22;7693;49.266;7.104;2022-11-10T06:29:51;9.60;99.90
15184;DHT22;7693;49.266;7.104;2022-11-10T06:32:16;9.60;99.90
15184;DHT22;7693;49.266;7.104;2022-11-10T06:34:42;9.60;99.90
15184;DHT22;7693;49.266;7.104;2022-11-10T06:37:08;9.60;99.90
15184;DHT22;7693;49.266;7.104;2022-11-10T06:39:33;9.60;99.90
15184;DHT22;7693;49.266;7.104;2022-11-10T06:41:59;9.60;99.90
15184;DHT22;7693;49.266;7.104;2022-11-10T06:44:25;9.60;99.90
15184;DHT22;7693;49.266;7.104;2022-11-10T06:46:51;9.60;99.90
15184;DHT22;7693;49.266;7.104;2022-11-10T06:49:17;9.60;99.90
15184;DHT22;7693;49.266;7.104;2022-11-10T06:51:42;9.60;99.90
15184;DHT22;7693;49.266;7.104;2022-11-10T06:54:08;9.60;99.90
15184;DHT22;7693;49.266;7.104;2022-11-10T06:56:34;9.60;99.90
15184;DHT22;7693;49.266;7.104;2022-11-10T06:59:00;9.60;99.90
15184;DHT22;7693;49.266;7.104;2022-11-10T07:01:25;9.60;99.90
15184;DHT22;7693;49.266;7.104;2022-11-10T07:03:51;9.60;99.90
15184;DHT22;7693;49.266;7.104;2022-11-10T07:06:20;9.60;99.90
15184;DHT22;7693;49.266;7.104;2022-11-10T07:08:48;9.60;99.90
15184;DHT22;7693;49.266;7.104;2022-11-10T07:11:13;9.60;99.90
15184;DHT22;7693;49.266;7.104;2022-11-10T07:13:39;9.60;99.90
15184;DHT22;7693;49.266;7.104;2022-11-10T09:56:50;9.40;99.90
15184;DHT22;7693;49.266;7.104;2022-11-10T09:59:26;9.50;99.90
15184;DHT22;7693;49.266;7.104;2022-11-10T10:02:02;9.50;99.90
15184;DHT22;7693;49.266;7.104;2022-11-10T10:07:25;9.50;99.90
15184;DHT22;7693;49.266;7.104;2022-11-10T10:25:38;9.70;99.90
15184;DHT22;7693;49.266;7.104;2022-11-10T10:30:36;9.70;99.90
15184;DHT22;7693;49.266;7.104;2022-11-10T10:33:15;9.70;99.90
15184;DHT22;7693;49.266;7.104;2022-11-10T10:35:42;9.70;99.90
15184;DHT22;7693;49.266;7.104;2022-11-10T10:38:22;9.70;99.90
15184;DHT22;7693;49.266;7.104;2022-11-10T10:40:51;9.80;99.90
15184;DHT22;7693;49.266;7.104;2022-11-10T10:43:17;9.80;99.90
15184;DHT22;7693;49.266;7.104;2022-11-10T10:45:43;9.80;99.90
15184;DHT22;7693;49.266;7.104;2022-11-10T10:48:29;9.90;99.90
15184;DHT22;7693;49.266;7.104;2022-11-10T10:50:54;9.90;99.90
15184;DHT22;7693;49.266;7.104;2022-11-10T10:53:22;9.90;99.90
15184;DHT22;7693;49.266;7.104;2022-11-10T10:58:22;9.90;99.90
15184;DHT22;7693;49.266;7.104;2022-11-10T13:32:28;10.60;99.90
15184;DHT22;7693;49.266;7.104;2022-11-10T13:34:54;10.70;99.90
15184;DHT22;7693;49.266;7.104;2022-11-10T13:37:43;10.80;99.90
15184;DHT22;7693;49.266;7.104;2022-11-10T13:40:32;10.80;99.90
15184;DHT22;7693;49.266;7.104;2022-11-10T13:51:01;10.90;99.90
15184;DHT22;7693;49.266;7.104;2022-11-10T13:56:38;11.00;99.90
15184;DHT22;7693;49.266;7.104;2022-11-10T13:59:25;11.00;99.90
15184;DHT22;7693;49.266;7.104;2022-11-10T14:01:51;11.00;99.90
15184;DHT22;7693;49.266;7.104;2022-11-10T16:26:47;9.90;99.90
15184;DHT22;7693;49.266;7.104;2022-11-10T16:29:14;9.90;99.90
15184;DHT22;7693;49.266;7.104;2022-11-10T16:31:42;9.90;99.90
15184;DHT22;7693;49.266;7.104;2022-11-10T16:34:13;9.90;99.90
15184;DHT22;7693;49.266;7.104;2022-11-10T16:36:39;9.90;99.90
15184;DHT22;7693;49.266;7.104;2022-11-10T16:39:10;10.00;99.90
15184;DHT22;7693;49.266;7.104;2022-11-10T16:41:36;10.00;99.90
15184;DHT22;7693;49.266;7.104;2022-11-10T16:44:02;10.00;99.90
15184;DHT22;7693;49.266;7.104;2022-11-10T16:46:28;10.00;99.90
15184;DHT22;7693;49.266;7.104;2022-11-10T16:48:59;10.00;99.90
15184;DHT22;7693;49.266;7.104;2022-11-10T16:51:30;10.00;99.90
15184;DHT22;7693;49.266;7.104;2022-11-10T16:53:57;10.00;99.90
15184;DHT22;7693;49.266;7.104;2022-11-10T16:56:26;10.00;99.90
15184;DHT22;7693;49.266;7.104;2022-11-10T16:58:52;10.00;99.90
15184;DHT22;7693;49.266;7.104;2022-11-10T17:01:20;10.00;99.90
15184;DHT22;7693;49.266;7.104;2022-11-10T17:03:54;10.00;99.90
15184;DHT22;7693;49.266;7.104;2022-11-10T17:06:22;10.00;99.90
15184;DHT22;7693;49.266;7.104;2022-11-10T17:08:49;10.00;99.90
15184;DHT22;7693;49.266;7.104;2022-11-10T17:11:16;10.00;99.90
15184;DHT22;7693;49.266;7.104;2022-11-10T17:13:42;10.00;99.90
15184;DHT22;7693;49.266;7.104;2022-11-10T17:16:27;10.10;99.90
15184;DHT22;7693;49.266;7.104;2022-11-10T17:18:54;10.10;99.90
15184;DHT22;7693;49.266;7.104;2022-11-10T17:21:21;10.10;99.90
15184;DHT22;7693;49.266;7.104;2022-11-10T18:50:51;9.50;99.90
15184;DHT22;7693;49.266;7.104;2022-11-10T18:53:16;9.50;99.90
15184;DHT22;7693;49.266;7.104;2022-11-10T18:55:55;9.50;99.90
15184;DHT22;7693;49.266;7.104;2022-11-10T18:58:20;9.50;99.90
15184;DHT22;7693;49.266;7.104;2022-11-10T19:00:46;9.50;99.90
15184;DHT22;7693;49.266;7.104;2022-11-10T19:03:12;9.40;99.90
15184;DHT22;7693;49.266;7.104;2022-11-10T19:05:37;9.50;99.90
15184;DHT22;7693;49.266;7.104;2022-11-10T19:08:04;9.50;99.90
15184;DHT22;7693;49.266;7.104;2022-11-10T19:10:31;9.40;99.90
15184;DHT22;7693;49.266;7.104;2022-11-10T19:12:57;9.40;99.90
15184;DHT22;7693;49.266;7.104;2022-11-10T19:15:22;9.40;99.90
15184;DHT22;7693;49.266;7.104;2022-11-10T19:17:48;9.40;99.90
15184;DHT22;7693;49.266;7.104;2022-11-10T19:20:14;9.40;99.90
15184;DHT22;7693;49.266;7.104;2022-11-10T19:22:40;9.40;99.90
15184;DHT22;7693;49.266;7.104;2022-11-10T19:25:06;9.40;99.90
15184;DHT22;7693;49.266;7.104;2022-11-10T19:27:31;9.40;99.90
15184;DHT22;7693;49.266;7.104;2022-11-10T19:29:57;9.40;99.90
15184;DHT22;7693;49.266;7.104;2022-11-10T19:32:23;9.40;99.90
15184;DHT22;7693;49.266;7.104;2022-11-10T19:34:48;9.50;99.90
15184;DHT22;7693;49.266;7.104;2022-11-10T19:37:14;9.50;99.90
15184;DHT22;7693;49.266;7.104;2022-11-10T19:39:39;9.40;99.90
15184;DHT22;7693;49.266;7.104;2022-11-10T19:42:05;9.50;99.90
15184;DHT22;7693;49.266;7.104;2022-11-10T19:44:30;9.50;99.90
15184;DHT22;7693;49.266;7.104;2022-11-10T19:46:56;9.50;99.90
15184;DHT22;7693;49.266;7.104;2022-11-10T19:49:21;9.50;99.90
15184;DHT22;7693;49.266;7.104;2022-11-10T19:51:50;9.40;99.90
15184;DHT22;7693;49.266;7.104;2022-11-10T19:54:16;9.50;99.90
15184;DHT22;7693;49.266;7.104;2022-11-10T19:56:41;9.40;99.90
15184;DHT22;7693;49.266;7.104;2022-11-10T19:59:07;9.40;99.90
15184;DHT22;7693;49.266;7.104;2022-11-10T20:01:32;9.40;99.90
15184;DHT22;7693;49.266;7.104;2022-11-10T20:03:59;9.40;99.90
15184;DHT22;7693;49.266;7.104;2022-11-10T20:06:25;9.40;99.90
15184;DHT22;7693;49.266;7.104;2022-11-10T20:08:50;9.40;99.90
15184;DHT22;7693;49.266;7.104;2022-11-10T20:11:18;9.40;99.90
15184;DHT22;7693;49.266;7.104;2022-11-10T20:13:45;9.40;99.90
15184;DHT22;7693;49.266;7.104;2022-11-10T20:16:11;9.30;99.90
15184;DHT22;7693;49.266;7.104;2022-11-10T20:18:38;9.30;99.90
15184;DHT22;7693;49.266;7.104;2022-11-10T20:21:05;9.30;99.90
15184;DHT22;7693;49.266;7.104;2022-11-10T20:23:32;9.20;99.90
15184;DHT22;7693;49.266;7.104;2022-11-10T20:26:06;9.20;99.90
15184;DHT22;7693;49.266;7.104;2022-11-10T20:28:32;9.20;99.90
15184;DHT22;7693;49.266;7.104;2022-11-10T20:31:00;9.20;99.90
15184;DHT22;7693;49.266;7.104;2022-11-10T20:33:28;9.20;99.90
15184;DHT22;7693;49.266;7.104;2022-11-10T20:35:53;9.20;99.90
15184;DHT22;7693;49.266;7.104;2022-11-10T20:38:19;9.20;99.90
15184;DHT22;7693;49.266;7.104;2022-11-10T20:40:44;9.20;99.90
15184;DHT22;7693;49.266;7.104;2022-11-10T20:43:10;9.30;99.90
15184;DHT22;7693;49.266;7.104;2022-11-10T20:45:37;9.20;99.90
15184;DHT22;7693;49.266;7.104;2022-11-10T20:48:03;9.20;99.90
15184;DHT22;7693;49.266;7.104;2022-11-10T20:50:29;9.30;99.90
15184;DHT22;7693;49.266;7.104;2022-11-10T20:52:55;9.30;99.90
15184;DHT22;7693;49.266;7.104;2022-11-10T20:55:20;9.20;99.90
15184;DHT22;7693;49.266;7.104;2022-11-10T20:57:46;9.20;99.90
15184;DHT22;7693;49.266;7.104;2022-11-10T21:00:12;9.20;99.90
15184;DHT22;7693;49.266;7.104;2022-11-10T21:02:37;9.30;99.90
15184;DHT22;7693;49.266;7.104;2022-11-10T21:05:03;9.30;99.90
15184;DHT22;7693;49.266;7.104;2022-11-10T21:07:30;9.20;99.90
15184;DHT22;7693;49.266;7.104;2022-11-10T21:09:55;9.20;99.90
15184;DHT22;7693;49.266;7.104;2022-11-10T21:12:21;9.30;99.90
15184;DHT22;7693;49.266;7.104;2022-11-10T21:15:05;9.20;99.90
15184;DHT22;7693;49.266;7.104;2022-11-10T21:17:31;9.20;99.90
15184;DHT22;7693;49.266;7.104;2022-11-10T21:19:57;9.10;99.90
15184;DHT22;7693;49.266;7.104;2022-11-10T21:22:22;9.10;99.90
15184;DHT22;7693;49.266;7.104;2022-11-10T21:24:48;9.10;99.90
15184;DHT22;7693;49.266;7.104;2022-11-10T21:27:13;9.10;99.90
15184;DHT22;7693;49.266;7.104;2022-11-10T21:29:39;9.00;99.90
15184;DHT22;7693;49.266;7.104;2022-11-10T21:32:06;9.00;99.90
15184;DHT22;7693;49.266;7.104;2022-11-10T21:34:32;9.00;99.90
15184;DHT22;7693;49.266;7.104;2022-11-10T21:36:57;9.10;99.90
15184;DHT22;7693;49.266;7.104;2022-11-10T21:39:23;9.00;99.90
15184;DHT22;7693;49.266;7.104;2022-11-10T21:41:48;9.10;99.90
15184;DHT22;7693;49.266;7.104;2022-11-10T21:44:14;9.00;99.90
15184;DHT22;7693;49.266;7.104;2022-11-10T21:46:39;9.00;99.90
15184;DHT22;7693;49.266;7.104;2022-11-10T21:49:05;9.00;99.90
15184;DHT22;7693;49.266;7.104;2022-11-10T21:51:31;9.00;99.90
15184;DHT22;7693;49.266;7.104;2022-11-10T21:53:57;9.00;99.90
15184;DHT22;7693;49.266;7.104;2022-11-10T21:56:22;9.00;99.90
15184;DHT22;7693;49.266;7.104;2022-11-10T21:58:48;9.00;99.90
15184;DHT22;7693;49.266;7.104;2022-11-10T22:01:16;9.00;99.90
15184;DHT22;7693;49.266;7.104;2022-11-10T22:03:43;9.10;99.90
15184;DHT22;7693;49.266;7.104;2022-11-10T22:06:14;9.10;99.90
15184;DHT22;7693;49.266;7.104;2022-11-10T22:08:40;9.10;99.90
15184;DHT22;7693;49.266;7.104;2022-11-10T22:11:15;9.10;99.90
15184;DHT22;7693;49.266;7.104;2022-11-10T22:14:00;9.10;99.90
15184;DHT22;7693;49.266;7.104;2022-11-10T22:16:50;9.00;99.90
15184;DHT22;7693;49.266;7.104;2022-11-10T22:19:35;9.00;99.90
15184;DHT22;7693;49.266;7.104;2022-11-10T22:22:01;9.00;99.90
15184;DHT22;7693;49.266;7.104;2022-11-10T22:24:27;9.00;99.90
15184;DHT22;7693;49.266;7.104;2022-11-10T22:26:56;9.00;99.90
15184;DHT22;7693;49.266;7.104;2022-11-10T22:29:23;9.00;99.90
15184;DHT22;7693;49.266;7.104;2022-11-10T22:31:49;9.00;99.90
15184;DHT22;7693;49.266;7.104;2022-11-10T22:34:16;9.00;99.90
15184;DHT22;7693;49.266;7.104;2022-11-10T22:36:42;9.00;99.90
15184;DHT22;7693;49.266;7.104;2022-11-10T22:39:08;9.00;99.90
15184;DHT22;7693;49.266;7.104;2022-11-10T22:41:33;9.00;99.90
15184;DHT22;7693;49.266;7.104;2022-11-10T22:44:18;9.00;99.90
15184;DHT22;7693;49.266;7.104;2022-11-10T22:46:49;8.90;99.90
15184;DHT22;7693;49.266;7.104;2022-11-10T22:49:19;8.90;99.90
15184;DHT22;7693;49.266;7.104;2022-11-10T22:51:47;8.80;99.90
15184;DHT22;7693;49.266;7.104;2022-11-10T22:54:18;8.80;99.90
15184;DHT22;7693;49.266;7.104;2022-11-10T22:56:45;8.80;99.90
15184;DHT22;7693;49.266;7.104;2022-11-10T22:59:12;8.80;99.90
15184;DHT22;7693;49.266;7.104;2022-11-10T23:01:39;8.80;99.90
15184;DHT22;7693;49.266;7.104;2022-11-10T23:04:05;8.80;99.90
15184;DHT22;7693;49.266;7.104;2022-11-10T23:06:31;8.80;99.90
